Time;durP1;ratioP1;P1;durP2;ratioP2;P2;SDS_P1;SDS_P2;PMS_P1;PMS_P2;Temp;Humidity;BMP_temperature;BMP_pressure;BME280_temperature;BME280_humidity;BME280_pressure;Samples;Min_cycle;Max_cycle;Signal;HPM_P1;HPM_P2
2022/11/22 00:02:00;;;;;;;;;;;3.20;99.90;;;;;;5007035;28;19964;-87
2022/11/22 00:04:26;;;;;;;;;;;2.20;99.90;;;;;;5023373;28;19971;-86
2022/11/22 00:06:51;;;;;;;;;;;3.10;99.90;;;;;;5006252;28;19925;-86
2022/11/22 00:09:17;;;;;;;;;;;2.80;99.90;;;;;;5023146;28;20012;-86
2022/11/22 00:11:43;;;;;;;;;;;2.20;99.90;;;;;;5006574;28;20095;-86
2022/11/22 00:14:08;;;;;;;;;;;3.80;99.90;;;;;;5040410;28;19925;-86
2022/11/22 00:16:34;;;;;;;;;;;2.50;99.90;;;;;;5022861;28;19925;-86
2022/11/22 00:19:00;;;;;;;;;;;1.20;99.90;;;;;;5039146;28;20007;-86
2022/11/22 00:21:25;;;;;;;;;;;4.40;99.90;;;;;;5039240;28;19983;-86
2022/11/22 00:23:57;;;;;;;;;;;4.00;99.90;;;;;;5039289;28;19931;-86
2022/11/22 00:26:23;;;;;;;;;;;2.20;99.90;;;;;;5039613;28;19925;-86
2022/11/22 00:28:49;;;;;;;;;;;2.20;99.90;;;;;;5006365;28;20040;-87
2022/11/22 00:31:14;;;;;;;;;;;3.60;99.90;;;;;;5039120;28;19924;-87
2022/11/22 00:33:40;;;;;;;;;;;2.10;99.90;;;;;;5023314;28;20345;-86
2022/11/22 00:36:06;;;;;;;;;;;2.20;99.90;;;;;;5039084;28;20340;-86
2022/11/22 00:38:31;;;;;;;;;;;2.10;99.90;;;;;;5022429;28;19928;-86
2022/11/22 00:40:57;;;;;;;;;;;3.60;99.90;;;;;;5022675;28;19925;-85
2022/11/22 00:43:22;;;;;;;;;;;4.30;99.90;;;;;;5022295;28;19932;-86
2022/11/22 00:45:48;;;;;;;;;;;4.00;99.90;;;;;;5023263;28;19925;-86
2022/11/22 00:48:13;;;;;;;;;;;3.10;99.90;;;;;;5022404;28;19983;-85
2022/11/22 00:50:39;;;;;;;;;;;3.70;99.90;;;;;;5020923;28;20414;-86
2022/11/22 00:53:05;;;;;;;;;;;2.60;99.90;;;;;;5022964;28;19931;-87
2022/11/22 00:55:30;;;;;;;;;;;3.60;99.90;;;;;;5022969;28;19925;-86
2022/11/22 00:57:56;;;;;;;;;;;3.40;99.90;;;;;;5022965;28;19925;-87
2022/11/22 01:00:22;;;;;;;;;;;3.00;99.90;;;;;;5021781;28;19947;-88
2022/11/22 01:02:47;;;;;;;;;;;1.90;99.90;;;;;;5022038;28;20447;-87
2022/11/22 01:05:13;;;;;;;;;;;4.00;99.90;;;;;;5021977;28;19928;-87
2022/11/22 01:07:38;;;;;;;;;;;2.40;99.90;;;;;;5021866;28;19925;-86
2022/11/22 01:10:04;;;;;;;;;;;3.50;99.90;;;;;;5021598;28;20015;-87
2022/11/22 01:12:30;;;;;;;;;;;1.90;99.90;;;;;;5021810;28;19970;-87
2022/11/22 01:14:55;;;;;;;;;;;1.90;99.90;;;;;;5021849;28;19948;-88
2022/11/22 01:17:21;;;;;;;;;;;2.10;99.90;;;;;;5021781;28;20038;-87
2022/11/22 01:19:47;;;;;;;;;;;4.10;99.90;;;;;;5039145;28;19976;-87
2022/11/22 01:22:12;;;;;;;;;;;3.90;99.90;;;;;;5005604;28;19925;-87
2022/11/22 01:24:38;;;;;;;;;;;4.10;99.90;;;;;;5021366;28;20395;-86
2022/11/22 01:27:03;;;;;;;;;;;3.80;99.90;;;;;;5021590;28;19928;-86
2022/11/22 01:29:29;;;;;;;;;;;3.60;99.90;;;;;;5021425;28;19925;-86
2022/11/22 01:31:55;;;;;;;;;;;2.00;99.90;;;;;;5038779;28;19932;-87
2022/11/22 01:34:20;;;;;;;;;;;2.30;99.90;;;;;;5022045;28;19925;-87
2022/11/22 01:36:46;;;;;;;;;;;2.10;99.90;;;;;;5021381;28;19931;-87
2022/11/22 01:39:12;;;;;;;;;;;3.10;99.90;;;;;;5037809;28;20019;-88
2022/11/22 01:41:40;;;;;;;;;;;2.60;99.90;;;;;;5021116;28;20299;-88
2022/11/22 01:44:19;;;;;;;;;;;2.20;99.90;;;;;;5037646;28;20020;-87
2022/11/22 01:46:46;;;;;;;;;;;2.00;99.90;;;;;;5038078;28;19925;-87
2022/11/22 01:49:18;;;;;;;;;;;4.30;99.90;;;;;;5021259;28;19925;-87
2022/11/22 01:51:49;;;;;;;;;;;3.70;99.90;;;;;;5021449;28;19975;-87
2022/11/22 01:54:16;;;;;;;;;;;2.40;99.90;;;;;;5038282;28;19932;-87
2022/11/22 01:56:43;;;;;;;;;;;3.60;99.90;;;;;;5021399;28;20229;-87
2022/11/22 01:59:12;;;;;;;;;;;3.90;99.90;;;;;;5021249;28;19946;-86
2022/11/22 02:01:38;;;;;;;;;;;3.50;99.90;;;;;;5019997;28;19985;-87
2022/11/22 02:04:05;;;;;;;;;;;2.90;99.90;;;;;;5021026;28;20030;-87
2022/11/22 02:06:35;;;;;;;;;;;0.80;99.90;;;;;;5021797;28;20016;-87
2022/11/22 02:09:10;;;;;;;;;;;3.70;99.90;;;;;;5037278;28;19924;-88
2022/11/22 02:11:37;;;;;;;;;;;2.00;99.90;;;;;;5036907;28;20364;-87
2022/11/22 02:14:04;;;;;;;;;;;3.90;99.90;;;;;;5021192;28;19925;-88
2022/11/22 02:16:29;;;;;;;;;;;3.80;99.90;;;;;;5020601;28;19932;-87
2022/11/22 02:18:57;;;;;;;;;;;2.20;99.90;;;;;;5020728;28;19987;-87
2022/11/22 02:21:23;;;;;;;;;;;3.90;99.90;;;;;;5036984;28;20101;-87
2022/11/22 02:23:53;;;;;;;;;;;2.10;99.90;;;;;;5037057;28;19951;-87
2022/11/22 02:26:19;;;;;;;;;;;2.10;99.90;;;;;;5020481;28;19925;-88
2022/11/22 02:28:45;;;;;;;;;;;3.10;99.90;;;;;;5037142;28;20280;-88
2022/11/22 02:31:30;;;;;;;;;;;3.40;99.90;;;;;;5036905;28;19925;-87
2022/11/22 02:33:56;;;;;;;;;;;3.60;99.90;;;;;;5019589;28;20323;-86
2022/11/22 02:36:22;;;;;;;;;;;3.10;99.90;;;;;;5020484;28;19951;-87
2022/11/22 02:38:47;;;;;;;;;;;2.20;99.90;;;;;;5036778;28;20391;-87
2022/11/22 02:41:13;;;;;;;;;;;2.30;99.90;;;;;;5004198;28;20016;-87
2022/11/22 02:43:40;;;;;;;;;;;3.50;99.90;;;;;;5004595;28;19976;-87
2022/11/22 02:46:07;;;;;;;;;;;2.40;99.90;;;;;;5020178;28;19931;-87
2022/11/22 02:48:33;;;;;;;;;;;3.30;99.90;;;;;;5019959;28;20335;-87
2022/11/22 02:50:59;;;;;;;;;;;2.20;99.90;;;;;;5019864;28;19924;-87
2022/11/22 02:53:25;;;;;;;;;;;2.20;99.90;;;;;;5020017;28;19924;-88
2022/11/22 02:55:51;;;;;;;;;;;2.20;99.90;;;;;;5020243;28;19932;-87
2022/11/22 02:58:22;;;;;;;;;;;3.80;99.90;;;;;;5020858;28;19925;-88
2022/11/22 03:00:51;;;;;;;;;;;2.30;99.90;;;;;;5019268;28;19929;-87
2022/11/22 03:03:17;;;;;;;;;;;3.80;99.90;;;;;;5003599;28;19924;-87
2022/11/22 03:05:42;;;;;;;;;;;3.20;99.90;;;;;;5036430;28;20384;-87
2022/11/22 03:08:08;;;;;;;;;;;2.30;99.90;;;;;;5019859;28;19924;-87
2022/11/22 03:10:33;;;;;;;;;;;2.30;99.90;;;;;;5003285;28;20285;-88
2022/11/22 03:12:59;;;;;;;;;;;2.30;99.90;;;;;;5019380;28;19929;-87
2022/11/22 03:15:25;;;;;;;;;;;2.60;99.90;;;;;;5019389;28;19925;-86
2022/11/22 03:17:57;;;;;;;;;;;3.20;99.90;;;;;;5035642;28;19924;-87
2022/11/22 03:20:23;;;;;;;;;;;2.40;99.90;;;;;;5019631;28;19932;-87
2022/11/22 03:22:49;;;;;;;;;;;2.50;99.90;;;;;;5004045;28;19925;-87
2022/11/22 03:25:14;;;;;;;;;;;2.30;99.90;;;;;;5020503;28;20348;-87
2022/11/22 03:27:40;;;;;;;;;;;4.50;99.90;;;;;;5003329;28;20381;-87
2022/11/22 03:30:06;;;;;;;;;;;2.40;99.90;;;;;;5036717;28;20015;-86
2022/11/22 03:32:31;;;;;;;;;;;2.40;99.90;;;;;;5036879;28;19925;-87
2022/11/22 03:34:57;;;;;;;;;;;2.40;99.90;;;;;;5019697;28;19925;-87
2022/11/22 03:37:23;;;;;;;;;;;3.50;99.90;;;;;;5036362;28;19925;-86
2022/11/22 03:39:48;;;;;;;;;;;3.90;99.90;;;;;;5020027;28;20391;-86
2022/11/22 03:42:14;;;;;;;;;;;2.80;99.90;;;;;;5036006;28;20284;-88
2022/11/22 03:44:39;;;;;;;;;;;4.00;99.90;;;;;;5022185;28;19932;-87
2022/11/22 03:47:05;;;;;;;;;;;4.10;99.90;;;;;;5031099;28;19940;-88
2022/11/22 03:49:30;;;;;;;;;;;3.30;99.90;;;;;;5045950;28;19924;-86
2022/11/22 03:51:56;;;;;;;;;;;4.20;99.90;;;;;;5044233;28;19925;-86
2022/11/22 03:54:22;;;;;;;;;;;4.10;99.90;;;;;;5029957;28;19925;-87
2022/11/22 03:56:47;;;;;;;;;;;3.70;99.90;;;;;;5030882;28;19932;-87
2022/11/22 03:59:13;;;;;;;;;;;2.90;99.90;;;;;;5041482;28;20049;-87
2022/11/22 04:01:38;;;;;;;;;;;2.60;99.90;;;;;;5019923;28;19932;-87
2022/11/22 04:04:04;;;;;;;;;;;1.40;99.90;;;;;;5021225;28;19948;-87
2022/11/22 04:06:30;;;;;;;;;;;2.70;99.90;;;;;;5020450;28;19931;-87
2022/11/22 04:08:55;;;;;;;;;;;3.90;99.90;;;;;;5021107;28;19932;-87
2022/11/22 04:11:21;;;;;;;;;;;4.10;99.90;;;;;;5020621;28;19929;-87
2022/11/22 04:16:31;;;;;;;;;;;2.70;99.90;;;;;;5045829;28;19925;-89
2022/11/22 04:18:57;;;;;;;;;;;3.40;99.90;;;;;;5030161;28;19931;-89
2022/11/22 04:21:35;;;;;;;;;;;4.70;99.90;;;;;;5046321;28;19924;-88
2022/11/22 04:26:49;;;;;;;;;;;4.40;99.90;;;;;;5049057;28;20349;-87
2022/11/22 04:29:15;;;;;;;;;;;2.80;99.90;;;;;;5024584;28;19920;-88
2022/11/22 04:34:25;;;;;;;;;;;2.70;99.90;;;;;;5025994;28;19925;-88
2022/11/22 04:36:51;;;;;;;;;;;3.10;99.90;;;;;;5023012;28;19939;-87
2022/11/22 04:39:16;;;;;;;;;;;3.90;99.90;;;;;;5023073;28;19947;-87
2022/11/22 04:41:42;;;;;;;;;;;4.50;99.90;;;;;;5040095;28;20277;-88
2022/11/22 04:46:52;;;;;;;;;;;3.50;99.90;;;;;;5039493;28;20399;-88
2022/11/22 04:49:18;;;;;;;;;;;4.70;99.90;;;;;;5006732;28;20017;-87
2022/11/22 04:54:28;;;;;;;;;;;3.50;99.90;;;;;;5039684;28;20361;-87
2022/11/22 04:56:54;;;;;;;;;;;2.90;99.90;;;;;;5040028;28;19929;-87
2022/11/22 04:59:19;;;;;;;;;;;2.70;99.90;;;;;;5040110;28;20029;-87
2022/11/22 05:01:45;;;;;;;;;;;3.40;99.90;;;;;;5005832;28;19925;-87
2022/11/22 05:04:11;;;;;;;;;;;4.60;99.90;;;;;;5023655;28;19987;-87
2022/11/22 05:06:36;;;;;;;;;;;4.40;99.90;;;;;;5022922;28;19925;-87
2022/11/22 05:09:02;;;;;;;;;;;3.10;99.90;;;;;;5039451;28;20365;-87
2022/11/22 05:11:28;;;;;;;;;;;3.00;99.90;;;;;;5039210;28;19925;-87
2022/11/22 05:13:53;;;;;;;;;;;3.00;99.90;;;;;;5023333;28;19928;-87
2022/11/22 05:16:19;;;;;;;;;;;3.00;99.90;;;;;;5022803;28;19925;-87
2022/11/22 05:18:57;;;;;;;;;;;3.20;99.90;;;;;;5022376;28;19969;-87
2022/11/22 05:21:24;;;;;;;;;;;5.20;99.90;;;;;;5022682;28;20489;-87
2022/11/22 05:23:53;;;;;;;;;;;3.10;99.90;;;;;;5038914;28;19985;-87
2022/11/22 05:26:19;;;;;;;;;;;3.20;99.90;;;;;;5022708;28;19967;-87
2022/11/22 05:28:45;;;;;;;;;;;5.00;99.90;;;;;;5037896;28;19948;-86
2022/11/22 05:31:15;;;;;;;;;;;3.20;99.90;;;;;;5004921;28;19925;-87
2022/11/22 05:33:44;;;;;;;;;;;3.40;99.90;;;;;;5038260;28;20257;-87
2022/11/22 05:36:11;;;;;;;;;;;3.40;99.90;;;;;;5054848;28;20372;-87
2022/11/22 05:38:37;;;;;;;;;;;4.80;99.90;;;;;;5021496;28;19925;-88
2022/11/22 05:41:04;;;;;;;;;;;3.30;99.90;;;;;;5020950;28;19971;-88
2022/11/22 05:43:30;;;;;;;;;;;5.10;99.90;;;;;;5021272;28;19932;-88
2022/11/22 05:45:55;;;;;;;;;;;4.90;99.90;;;;;;5021164;28;20331;-87
2022/11/22 05:48:21;;;;;;;;;;;3.40;99.90;;;;;;5038563;28;19925;-87
2022/11/22 05:50:46;;;;;;;;;;;3.20;99.90;;;;;;5020728;28;20467;-87
2022/11/22 05:53:12;;;;;;;;;;;3.30;99.90;;;;;;5021917;28;19960;-87
2022/11/22 05:55:38;;;;;;;;;;;3.30;99.90;;;;;;5021067;28;19932;-88
2022/11/22 05:58:03;;;;;;;;;;;3.60;99.90;;;;;;5037445;28;19928;-87
2022/11/22 06:00:29;;;;;;;;;;;4.60;99.90;;;;;;5020737;28;19929;-87
2022/11/22 06:03:02;;;;;;;;;;;5.30;99.90;;;;;;5021810;28;20009;-88
2022/11/22 06:05:28;;;;;;;;;;;3.50;99.90;;;;;;5037662;28;20032;-88
2022/11/22 06:07:58;;;;;;;;;;;4.60;99.90;;;;;;5037225;28;20019;-87
2022/11/22 06:10:24;;;;;;;;;;;3.70;99.90;;;;;;5037084;28;19972;-88
2022/11/22 06:12:50;;;;;;;;;;;3.40;99.90;;;;;;5020809;28;19975;-87
2022/11/22 06:15:15;;;;;;;;;;;3.30;99.90;;;;;;5037311;28;20284;-88
2022/11/22 06:17:41;;;;;;;;;;;3.40;99.90;;;;;;5020651;28;19929;-87
2022/11/22 06:20:07;;;;;;;;;;;3.40;99.90;;;;;;5037226;28;20011;-88
2022/11/22 06:22:33;;;;;;;;;;;3.50;99.90;;;;;;5004137;28;19951;-87
2022/11/22 06:24:58;;;;;;;;;;;3.40;99.90;;;;;;5036743;28;19924;-87
2022/11/22 06:27:24;;;;;;;;;;;3.90;99.90;;;;;;5019904;28;20011;-87
2022/11/22 06:29:50;;;;;;;;;;;5.10;99.90;;;;;;5019979;28;20054;-87
2022/11/22 06:32:15;;;;;;;;;;;3.50;99.90;;;;;;5020494;28;19925;-85
2022/11/22 06:34:41;;;;;;;;;;;3.50;99.90;;;;;;5036400;28;19932;-84
2022/11/22 06:37:06;;;;;;;;;;;3.50;99.90;;;;;;5037057;28;19976;-85
2022/11/22 06:39:32;;;;;;;;;;;3.50;99.90;;;;;;5004613;28;20265;-86
2022/11/22 06:41:57;;;;;;;;;;;3.70;99.90;;;;;;5036615;28;19924;-85
2022/11/22 06:44:23;;;;;;;;;;;3.60;99.90;;;;;;5019884;28;19929;-86
2022/11/22 06:46:49;;;;;;;;;;;4.70;99.90;;;;;;5003807;28;19932;-85
2022/11/22 06:49:14;;;;;;;;;;;3.50;99.90;;;;;;5020190;28;20423;-86
2022/11/22 06:51:40;;;;;;;;;;;2.90;99.90;;;;;;5019907;28;20276;-86
2022/11/22 06:54:05;;;;;;;;;;;5.10;99.90;;;;;;5003937;28;19931;-85
2022/11/22 06:56:35;;;;;;;;;;;4.70;99.90;;;;;;5036437;28;20361;-84
2022/11/22 06:59:02;;;;;;;;;;;3.50;99.90;;;;;;5053249;28;20364;-85
2022/11/22 07:01:28;;;;;;;;;;;3.60;99.90;;;;;;5036693;28;19975;-85
2022/11/22 07:03:57;;;;;;;;;;;5.20;99.90;;;;;;5037090;28;19929;-85
2022/11/22 07:06:27;;;;;;;;;;;4.60;99.90;;;;;;5036117;28;19972;-85
2022/11/22 07:08:52;;;;;;;;;;;3.80;99.90;;;;;;5020335;28;19951;-85
2022/11/22 07:11:19;;;;;;;;;;;3.90;99.90;;;;;;5020005;28;20019;-86
2022/11/22 07:13:46;;;;;;;;;;;3.80;99.90;;;;;;5036454;28;19925;-85
2022/11/22 07:16:12;;;;;;;;;;;3.80;99.90;;;;;;5053754;28;19931;-85
2022/11/22 07:18:38;;;;;;;;;;;4.20;99.90;;;;;;5019648;28;19932;-85
2022/11/22 07:21:06;;;;;;;;;;;3.70;99.90;;;;;;5054496;28;20016;-86
2022/11/22 07:23:31;;;;;;;;;;;3.80;99.90;;;;;;5019556;28;19932;-85
2022/11/22 07:25:57;;;;;;;;;;;4.80;99.90;;;;;;5019967;28;19925;-85
2022/11/22 07:28:23;;;;;;;;;;;4.20;99.90;;;;;;5019051;28;19975;-85
2022/11/22 07:30:48;;;;;;;;;;;5.20;99.90;;;;;;5052687;28;19925;-86
2022/11/22 07:33:14;;;;;;;;;;;5.40;99.90;;;;;;5019127;28;19931;-86
2022/11/22 07:35:40;;;;;;;;;;;5.10;99.90;;;;;;5019613;28;19924;-86
2022/11/22 07:38:05;;;;;;;;;;;3.90;99.90;;;;;;5036523;28;19924;-86
2022/11/22 07:40:31;;;;;;;;;;;3.50;99.90;;;;;;5035973;28;20311;-86
2022/11/22 07:42:56;;;;;;;;;;;4.00;99.90;;;;;;5019581;28;20357;-86
2022/11/22 07:45:22;;;;;;;;;;;4.30;99.90;;;;;;5035974;28;20250;-86
2022/11/22 07:47:48;;;;;;;;;;;4.00;99.90;;;;;;5036307;28;19925;-86
2022/11/22 07:50:14;;;;;;;;;;;4.10;99.90;;;;;;5019082;28;20020;-86
2022/11/22 07:52:40;;;;;;;;;;;4.20;99.90;;;;;;5035800;28;20229;-87
2022/11/22 07:55:06;;;;;;;;;;;4.20;99.90;;;;;;5019428;28;19945;-86
2022/11/22 07:57:31;;;;;;;;;;;4.20;99.90;;;;;;5036087;28;19979;-86
2022/11/22 07:59:57;;;;;;;;;;;4.20;99.90;;;;;;5003649;28;19994;-86
2022/11/22 08:02:23;;;;;;;;;;;4.50;99.90;;;;;;5040613;28;20118;-86
2022/11/22 08:04:48;;;;;;;;;;;4.40;99.90;;;;;;5039769;28;19925;-86
2022/11/22 08:07:14;;;;;;;;;;;4.40;99.90;;;;;;5039519;28;19955;-87
2022/11/22 08:09:39;;;;;;;;;;;4.50;99.90;;;;;;5040021;28;19924;-86
2022/11/22 08:12:05;;;;;;;;;;;4.50;99.90;;;;;;5038977;28;19932;-86
2022/11/22 08:14:31;;;;;;;;;;;4.50;99.90;;;;;;5023432;28;19987;-86
2022/11/22 08:16:56;;;;;;;;;;;4.60;99.90;;;;;;5022995;28;19947;-86
2022/11/22 08:19:22;;;;;;;;;;;4.60;99.90;;;;;;5039809;28;19924;-86
2022/11/22 08:21:48;;;;;;;;;;;4.60;99.90;;;;;;5039297;28;19932;-87
2022/11/22 08:24:14;;;;;;;;;;;4.90;99.90;;;;;;5022880;28;19929;-87
2022/11/22 08:26:39;;;;;;;;;;;5.10;99.90;;;;;;5039315;28;19924;-87
2022/11/22 08:29:07;;;;;;;;;;;4.60;99.90;;;;;;5022666;28;19932;-86
2022/11/22 08:31:32;;;;;;;;;;;4.60;99.90;;;;;;5039136;28;19929;-87
2022/11/22 08:33:58;;;;;;;;;;;5.30;99.90;;;;;;5022726;28;20037;-86
2022/11/22 08:36:25;;;;;;;;;;;3.20;99.90;;;;;;5039131;28;19928;-87
2022/11/22 08:38:50;;;;;;;;;;;4.60;99.90;;;;;;5022581;28;20352;-86
2022/11/22 08:41:16;;;;;;;;;;;4.80;99.90;;;;;;5023424;28;19932;-86
2022/11/22 08:43:41;;;;;;;;;;;4.50;99.90;;;;;;5022532;28;20288;-86
2022/11/22 08:46:07;;;;;;;;;;;4.50;99.90;;;;;;5023360;28;19932;-86
2022/11/22 08:48:34;;;;;;;;;;;5.20;99.90;;;;;;5039160;28;20377;-86
2022/11/22 08:51:01;;;;;;;;;;;4.50;99.90;;;;;;5038638;28;19924;-87
2022/11/22 08:53:26;;;;;;;;;;;4.50;99.90;;;;;;5038720;28;19924;-87
2022/11/22 08:55:53;;;;;;;;;;;4.50;99.90;;;;;;5038496;28;19932;-86
2022/11/22 08:58:19;;;;;;;;;;;4.60;99.90;;;;;;5022531;28;20335;-86
2022/11/22 09:00:44;;;;;;;;;;;4.60;99.90;;;;;;5021654;28;19924;-87
2022/11/22 09:03:10;;;;;;;;;;;4.70;99.90;;;;;;5022483;28;19947;-86
2022/11/22 09:05:36;;;;;;;;;;;4.80;99.90;;;;;;5038567;28;20378;-87
2022/11/22 09:08:02;;;;;;;;;;;4.80;99.90;;;;;;5022047;28;19925;-86
2022/11/22 09:10:27;;;;;;;;;;;4.90;99.90;;;;;;5021270;28;19925;-86
2022/11/22 09:12:53;;;;;;;;;;;5.40;99.90;;;;;;5038139;28;20014;-87
2022/11/22 09:15:19;;;;;;;;;;;4.90;99.90;;;;;;5021654;28;20003;-86
2022/11/22 09:17:44;;;;;;;;;;;6.00;99.90;;;;;;5022191;28;19979;-86
2022/11/22 09:20:10;;;;;;;;;;;5.50;99.90;;;;;;5021919;28;20019;-86
2022/11/22 09:22:36;;;;;;;;;;;5.00;99.90;;;;;;5037981;28;20293;-86
2022/11/22 09:25:02;;;;;;;;;;;5.00;99.90;;;;;;5021467;28;20008;-86
2022/11/22 09:27:28;;;;;;;;;;;5.00;99.90;;;;;;5021503;28;19931;-87
2022/11/22 09:29:53;;;;;;;;;;;5.80;99.90;;;;;;5038317;28;19928;-87
2022/11/22 09:32:19;;;;;;;;;;;5.10;99.90;;;;;;5005301;28;19928;-86
2022/11/22 09:34:45;;;;;;;;;;;4.60;99.90;;;;;;5021731;28;19929;-86
2022/11/22 09:37:10;;;;;;;;;;;5.10;99.90;;;;;;5021449;28;19925;-87
2022/11/22 09:39:36;;;;;;;;;;;4.90;99.90;;;;;;5021683;28;19925;-87
2022/11/22 09:42:17;;;;;;;;;;;5.20;99.90;;;;;;5038924;28;19974;-87
2022/11/22 09:44:42;;;;;;;;;;;5.20;99.90;;;;;;5021390;28;19928;-86
2022/11/22 09:47:08;;;;;;;;;;;5.20;99.90;;;;;;5021386;28;19924;-86
2022/11/22 09:49:44;;;;;;;;;;;5.30;99.90;;;;;;5021874;28;19977;-86
2022/11/22 09:52:33;;;;;;;;;;;5.30;99.90;;;;;;5037720;28;20055;-86
2022/11/22 09:55:01;;;;;;;;;;;5.30;99.90;;;;;;5008033;28;19925;-86
2022/11/22 09:57:30;;;;;;;;;;;5.30;99.90;;;;;;5037684;28;19974;-87
2022/11/22 10:00:17;;;;;;;;;;;5.80;99.90;;;;;;5054698;28;20374;-86
2022/11/22 10:02:48;;;;;;;;;;;5.40;99.90;;;;;;5037601;28;19968;-86
2022/11/22 10:05:24;;;;;;;;;;;6.10;99.90;;;;;;5037348;28;19931;-86
2022/11/22 10:07:55;;;;;;;;;;;5.40;99.90;;;;;;5037508;28;20258;-86
2022/11/22 10:10:23;;;;;;;;;;;6.50;99.90;;;;;;5038043;28;19986;-86
2022/11/22 10:13:02;;;;;;;;;;;5.40;99.90;;;;;;5020734;28;20378;-86
2022/11/22 10:15:28;;;;;;;;;;;5.40;99.90;;;;;;5036988;28;20426;-86
2022/11/22 10:17:57;;;;;;;;;;;5.50;99.90;;;;;;5037375;28;19928;-86
2022/11/22 10:20:34;;;;;;;;;;;5.50;99.90;;;;;;5038076;28;20272;-87
2022/11/22 10:23:00;;;;;;;;;;;5.50;99.90;;;;;;5036963;28;20001;-86
2022/11/22 10:25:35;;;;;;;;;;;5.60;99.90;;;;;;5037052;28;19947;-86
2022/11/22 10:28:08;;;;;;;;;;;5.60;99.90;;;;;;5021079;28;19932;-86
2022/11/22 10:30:38;;;;;;;;;;;5.60;99.90;;;;;;5036886;28;19928;-86
2022/11/22 10:33:03;;;;;;;;;;;5.60;99.90;;;;;;5020765;28;20361;-87
2022/11/22 10:35:47;;;;;;;;;;;5.70;99.90;;;;;;5037073;28;19925;-86
2022/11/22 10:38:22;;;;;;;;;;;5.70;99.90;;;;;;5020370;28;19933;-86
2022/11/22 10:40:48;;;;;;;;;;;5.70;99.90;;;;;;5036703;28;19929;-86
2022/11/22 10:43:17;;;;;;;;;;;5.90;99.90;;;;;;5020406;28;20327;-86
2022/11/22 10:45:45;;;;;;;;;;;5.80;99.90;;;;;;5020807;28;19929;-88
2022/11/22 10:48:30;;;;;;;;;;;6.10;99.90;;;;;;5020975;28;19994;-86
2022/11/22 10:51:11;;;;;;;;;;;6.20;99.90;;;;;;5018742;28;19925;-87
2022/11/22 10:53:56;;;;;;;;;;;6.20;99.90;;;;;;5036537;28;19931;-88
2022/11/22 10:56:24;;;;;;;;;;;6.30;99.90;;;;;;5019856;28;20373;-86
2022/11/22 10:58:50;;;;;;;;;;;6.40;99.90;;;;;;5020250;28;19987;-86
2022/11/22 11:01:19;;;;;;;;;;;6.50;99.90;;;;;;5019208;28;19932;-86
2022/11/22 11:03:46;;;;;;;;;;;6.50;99.90;;;;;;5019863;28;19924;-86
2022/11/22 11:06:15;;;;;;;;;;;6.60;99.90;;;;;;5036134;28;20016;-85
2022/11/22 11:08:45;;;;;;;;;;;8.40;99.90;;;;;;5036010;28;19925;-86
2022/11/22 11:11:12;;;;;;;;;;;6.80;99.90;;;;;;5036373;28;19986;-86
2022/11/22 11:13:42;;;;;;;;;;;6.80;99.90;;;;;;5020098;28;20367;-86
2022/11/22 11:16:12;;;;;;;;;;;6.80;99.90;;;;;;5020721;28;20436;-85
2022/11/22 11:18:56;;;;;;;;;;;6.70;99.90;;;;;;5019991;28;19931;-86
2022/11/22 11:21:22;;;;;;;;;;;6.70;99.90;;;;;;5020076;28;19990;-86
2022/11/22 11:23:47;;;;;;;;;;;6.80;99.90;;;;;;5019348;28;19948;-86
2022/11/22 11:26:25;;;;;;;;;;;6.60;99.90;;;;;;5036244;28;19968;-86
2022/11/22 11:29:10;;;;;;;;;;;6.60;99.90;;;;;;5019846;28;20383;-87
2022/11/22 11:31:47;;;;;;;;;;;6.50;99.90;;;;;;5020008;28;19933;-88
2022/11/22 11:34:20;;;;;;;;;;;6.50;99.90;;;;;;5020205;28;19983;-89
2022/11/22 11:36:46;;;;;;;;;;;6.50;99.90;;;;;;5024676;28;20030;-87
2022/11/22 11:39:19;;;;;;;;;;;5.30;99.90;;;;;;5023953;28;20428;-87
2022/11/22 11:41:46;;;;;;;;;;;6.40;99.90;;;;;;5040227;28;19925;-87
2022/11/22 11:44:27;;;;;;;;;;;6.50;99.90;;;;;;5024030;28;20266;-85
2022/11/22 11:46:53;;;;;;;;;;;6.40;99.90;;;;;;5023933;28;19925;-86
2022/11/22 11:49:26;;;;;;;;;;;6.50;99.90;;;;;;5039842;28;20062;-85
2022/11/22 11:51:51;;;;;;;;;;;6.50;99.90;;;;;;5023296;28;19974;-85
2022/11/22 11:54:29;;;;;;;;;;;6.60;99.90;;;;;;5039959;28;19925;-86
2022/11/22 11:56:56;;;;;;;;;;;6.70;99.90;;;;;;5040179;28;19970;-85
2022/11/22 11:59:24;;;;;;;;;;;6.70;99.90;;;;;;5039381;28;20440;-86
2022/11/22 12:01:50;;;;;;;;;;;6.80;99.90;;;;;;5022002;28;20004;-86
2022/11/22 12:04:23;;;;;;;;;;;6.80;99.90;;;;;;5040214;28;20471;-85
2022/11/22 12:07:16;;;;;;;;;;;6.90;99.90;;;;;;5040140;28;19972;-86
2022/11/22 12:09:43;;;;;;;;;;;6.90;99.90;;;;;;5039531;28;19955;-85
2022/11/22 12:12:16;;;;;;;;;;;6.90;99.90;;;;;;5039565;28;20349;-85
2022/11/22 12:14:44;;;;;;;;;;;7.00;99.90;;;;;;5039395;28;19925;-84
2022/11/22 12:17:16;;;;;;;;;;;7.00;99.90;;;;;;5022958;28;19952;-85
2022/11/22 12:19:47;;;;;;;;;;;6.10;99.90;;;;;;5023592;28;19988;-85
2022/11/22 12:22:22;;;;;;;;;;;7.00;99.90;;;;;;5039150;28;19929;-85
2022/11/22 12:25:16;;;;;;;;;;;7.00;99.90;;;;;;5022886;28;19931;-85
2022/11/22 12:27:42;;;;;;;;;;;7.00;99.90;;;;;;5056581;28;19929;-85
2022/11/22 12:30:11;;;;;;;;;;;7.00;99.90;;;;;;5038708;28;19931;-85
2022/11/22 12:32:40;;;;;;;;;;;7.10;99.90;;;;;;5022560;28;20284;-85
2022/11/22 12:35:15;;;;;;;;;;;7.10;99.90;;;;;;5038414;28;20315;-85
2022/11/22 12:37:43;;;;;;;;;;;7.10;99.90;;;;;;5022246;28;20065;-85
2022/11/22 12:40:31;;;;;;;;;;;7.10;99.90;;;;;;5038850;28;20012;-85
2022/11/22 12:42:58;;;;;;;;;;;7.10;99.90;;;;;;5039525;28;20367;-85
2022/11/22 12:45:29;;;;;;;;;;;7.20;99.90;;;;;;5021933;28;19928;-85
2022/11/22 12:47:56;;;;;;;;;;;7.20;99.90;;;;;;5022191;28;19964;-84
2022/11/22 12:50:40;;;;;;;;;;;7.20;99.90;;;;;;5039237;28;19924;-85
2022/11/22 12:53:11;;;;;;;;;;;7.20;99.90;;;;;;5038116;28;19924;-84
2022/11/22 12:55:55;;;;;;;;;;;7.20;99.90;;;;;;5038823;28;19939;-85
2022/11/22 12:58:30;;;;;;;;;;;7.20;99.90;;;;;;5021518;28;20385;-85
2022/11/22 13:01:07;;;;;;;;;;;7.10;99.90;;;;;;5021654;28;19931;-85
2022/11/22 13:03:36;;;;;;;;;;;7.10;99.90;;;;;;5038805;28;19925;-85
2022/11/22 13:06:04;;;;;;;;;;;7.10;99.90;;;;;;5021932;28;19927;-85
2022/11/22 13:09:02;;;;;;;;;;;7.00;99.90;;;;;;5038268;28;19924;-84
2022/11/22 13:11:49;;;;;;;;;;;7.00;99.90;;;;;;4968604;28;20012;-84
2022/11/22 13:14:18;;;;;;;;;;;7.10;99.90;;;;;;5038505;28;19925;-85
2022/11/22 13:16:44;;;;;;;;;;;7.00;99.90;;;;;;5038131;28;19929;-85
2022/11/22 13:19:12;;;;;;;;;;;7.00;99.90;;;;;;5038085;28;19932;-85
2022/11/22 13:21:44;;;;;;;;;;;7.00;99.90;;;;;;5038341;28;19968;-85
2022/11/22 13:24:16;;;;;;;;;;;7.00;99.90;;;;;;5021485;28;19932;-85
2022/11/22 13:27:01;;;;;;;;;;;7.00;99.90;;;;;;5022007;28;19978;-85
2022/11/22 13:29:27;;;;;;;;;;;7.00;99.90;;;;;;5037932;28;19925;-84
2022/11/22 13:32:05;;;;;;;;;;;6.90;99.90;;;;;;5038436;28;20269;-85
2022/11/22 13:34:31;;;;;;;;;;;7.30;99.90;;;;;;5037366;28;19925;-85
2022/11/22 13:37:11;;;;;;;;;;;6.90;99.90;;;;;;5037699;28;19929;-85
2022/11/22 13:39:44;;;;;;;;;;;6.90;99.90;;;;;;5021269;28;20015;-86
2022/11/22 13:42:16;;;;;;;;;;;6.90;99.90;;;;;;5037561;28;19971;-86
2022/11/22 13:45:01;;;;;;;;;;;6.90;99.90;;;;;;5020944;28;19947;-85
2022/11/22 13:47:27;;;;;;;;;;;6.90;99.90;;;;;;5036794;28;19924;-85
2022/11/22 13:49:53;;;;;;;;;;;7.00;99.90;;;;;;5037785;28;19975;-85
2022/11/22 13:52:18;;;;;;;;;;;6.90;99.90;;;;;;5021420;28;20285;-85
2022/11/22 13:54:47;;;;;;;;;;;6.80;99.90;;;;;;5021401;28;19971;-85
2022/11/22 13:57:33;;;;;;;;;;;6.80;99.90;;;;;;5036790;28;19925;-85
2022/11/22 14:00:11;;;;;;;;;;;6.80;99.90;;;;;;5020791;28;20266;-85
2022/11/22 14:02:57;;;;;;;;;;;6.80;99.90;;;;;;5036504;28;19932;-86
2022/11/22 14:05:28;;;;;;;;;;;6.80;99.90;;;;;;5019713;28;19925;-86
2022/11/22 14:07:58;;;;;;;;;;;6.80;99.90;;;;;;5021317;28;19925;-84
2022/11/22 14:10:27;;;;;;;;;;;6.70;99.90;;;;;;5020265;28;20286;-84
2022/11/22 14:12:52;;;;;;;;;;;6.70;99.90;;;;;;5020960;28;19932;-84
2022/11/22 14:15:37;;;;;;;;;;;6.70;99.90;;;;;;5037127;28;19925;-84
2022/11/22 14:18:22;;;;;;;;;;;6.70;99.90;;;;;;5020536;28;19929;-84
2022/11/22 14:20:48;;;;;;;;;;;6.70;99.90;;;;;;5019393;28;19948;-84
2022/11/22 14:23:13;;;;;;;;;;;6.70;99.90;;;;;;5036851;28;19925;-84
2022/11/22 14:25:39;;;;;;;;;;;7.00;99.90;;;;;;5054690;28;19925;-84
2022/11/22 14:28:08;;;;;;;;;;;6.70;99.90;;;;;;5036865;28;20260;-84
2022/11/22 14:30:45;;;;;;;;;;;6.70;99.90;;;;;;5036313;28;20430;-84
2022/11/22 14:33:18;;;;;;;;;;;6.60;99.90;;;;;;5037426;28;19928;-85
2022/11/22 14:36:02;;;;;;;;;;;6.60;99.90;;;;;;5036398;28;19945;-85
2022/11/22 14:38:30;;;;;;;;;;;6.60;99.90;;;;;;5037005;28;19948;-83
2022/11/22 14:41:15;;;;;;;;;;;6.60;99.90;;;;;;5036124;28;19925;-83
2022/11/22 14:43:41;;;;;;;;;;;6.60;99.90;;;;;;5020243;28;20281;-83
2022/11/22 14:46:12;;;;;;;;;;;6.50;99.90;;;;;;5036070;28;19925;-83
2022/11/22 14:48:51;;;;;;;;;;;6.50;99.90;;;;;;5019997;28;20023;-83
2022/11/22 14:51:23;;;;;;;;;;;6.50;99.90;;;;;;5035999;28;19925;-83
2022/11/22 14:53:58;;;;;;;;;;;6.50;99.90;;;;;;5036710;28;19929;-83